Time;durP1;ratioP1;P1;durP2;ratioP2;P2;SDS_P1;SDS_P2;PMS_P1;PMS_P2;Temp;Humidity;BMP_temperature;BMP_pressure;BME280_temperature;BME280_humidity;BME280_pressure;Samples;Min_cycle;Max_cycle;Signal;HPM_P1;HPM_P2
2022/04/08 00:00:18;;;;;;;;;;;8.30;99.90;;;7.71;69.76;95742.78;5035454;28;20008;-62
2022/04/08 00:02:43;;;;;;;;;;;8.30;99.90;;;7.73;70.77;95767.16;5035411;28;19920;-60
2022/04/08 00:05:09;;;;;;;;;;;8.30;99.90;;;7.67;73.15;95751.75;5036273;28;20426;-63
2022/04/08 00:07:35;;;;;;;;;;;8.30;99.90;;;7.64;72.05;95768.50;5033030;28;20365;-64
2022/04/08 00:10:02;;;;;;;;;;;8.30;99.90;;;7.65;72.67;95765.78;5034426;28;19917;-64
2022/04/08 00:12:28;;;;;;;;;;;8.30;99.90;;;7.63;69.39;95751.91;5034972;28;19916;-59
2022/04/08 00:14:53;;;;;;;;;;;8.30;99.90;;;7.71;67.27;95764.63;5035574;28;20444;-62
2022/04/08 00:17:19;;;;;;;;;;;8.30;99.90;;;7.81;69.64;95772.88;5034841;28;19925;-64
2022/04/08 00:19:45;;;;;;;;;;;8.40;99.90;;;7.78;68.27;95779.13;5032728;28;19921;-59
2022/04/08 00:22:10;;;;;;;;;;;8.40;99.90;;;7.79;69.38;95762.47;5036623;28;19971;-62
2022/04/08 00:24:36;;;;;;;;;;;8.40;99.90;;;7.80;69.02;95763.28;5034091;28;19917;-61
2022/04/08 00:27:01;;;;;;;;;;;8.40;99.90;;;7.77;67.83;95773.94;5034147;28;20315;-65
2022/04/08 00:29:27;;;;;;;;;;;8.40;99.90;;;7.68;69.15;95758.69;5035333;28;19959;-63
2022/04/08 00:31:57;;;;;;;;;;;8.40;99.90;;;7.67;70.06;95773.59;5036058;28;19921;-63
2022/04/08 00:34:25;;;;;;;;;;;8.30;99.90;;;7.68;66.44;95767.44;5035054;28;20036;-63
2022/04/08 00:36:50;;;;;;;;;;;8.30;99.90;;;7.68;67.33;95762.19;5035089;28;19928;-63
2022/04/08 00:39:16;;;;;;;;;;;8.30;99.90;;;7.65;70.38;95767.56;5034159;28;19920;-64
2022/04/08 00:41:41;;;;;;;;;;;8.30;99.90;;;7.72;66.65;95778.59;5033171;28;20625;-64
2022/04/08 00:44:07;;;;;;;;;;;8.30;99.90;;;7.67;67.58;95768.34;5025709;28;20061;-64
2022/04/08 00:46:33;;;;;;;;;;;8.30;99.90;;;7.68;69.72;95764.81;5035449;28;20059;-64
2022/04/08 00:48:58;;;;;;;;;;;8.30;99.90;;;7.67;68.17;95767.50;5032268;28;19927;-62
2022/04/08 00:51:24;;;;;;;;;;;8.30;99.90;;;7.64;67.19;95771.09;5033860;28;19917;-62
2022/04/08 00:53:50;;;;;;;;;;;8.30;99.90;;;7.67;66.49;95778.84;5035219;28;20515;-62
2022/04/08 00:56:17;;;;;;;;;;;8.30;99.90;;;7.75;66.60;95778.44;5037677;28;19956;-68
2022/04/08 00:58:42;;;;;;;;;;;8.40;99.90;;;7.74;66.67;95788.09;5033914;28;19982;-65
2022/04/08 01:01:08;;;;;;;;;;;8.30;99.90;;;7.80;66.15;95800.88;5036932;28;20335;-64
2022/04/08 01:03:34;;;;;;;;;;;8.40;99.90;;;7.74;67.75;95793.34;5034900;28;20396;-64
2022/04/08 01:05:59;;;;;;;;;;;8.40;99.90;;;7.70;69.43;95798.81;5032949;28;19924;-65
2022/04/08 01:08:25;;;;;;;;;;;8.30;99.90;;;7.61;70.39;95789.66;5033369;28;20388;-65
2022/04/08 01:10:52;;;;;;;;;;;8.30;99.90;;;7.63;68.09;95796.50;5034796;28;19956;-64
2022/04/08 01:13:18;;;;;;;;;;;8.20;99.90;;;7.60;69.88;95812.41;5034771;28;19990;-60
2022/04/08 01:15:44;;;;;;;;;;;8.20;99.90;;;7.51;70.00;95797.13;5034567;28;20373;-62
2022/04/08 01:18:10;;;;;;;;;;;8.20;99.90;;;7.50;67.71;95808.56;5035125;28;19931;-65
2022/04/08 01:20:36;;;;;;;;;;;8.10;99.90;;;7.45;73.28;95824.50;5028015;28;19924;-61
2022/04/08 01:23:01;;;;;;;;;;;8.10;99.90;;;7.48;68.10;95833.16;5034172;28;19921;-61
2022/04/08 01:25:27;;;;;;;;;;;8.10;99.90;;;7.41;69.81;95827.34;5032594;28;19917;-61
2022/04/08 01:27:53;;;;;;;;;;;8.10;99.90;;;7.41;70.87;95830.84;5031863;28;19928;-63
2022/04/08 01:30:18;;;;;;;;;;;8.10;99.90;;;7.44;67.93;95808.84;5033907;28;19925;-64
2022/04/08 01:32:44;;;;;;;;;;;8.10;99.90;;;7.40;67.99;95818.63;5032478;28;19924;-61
2022/04/08 01:35:09;;;;;;;;;;;8.10;99.90;;;7.40;68.26;95815.19;5033226;28;19925;-63
2022/04/08 01:37:35;;;;;;;;;;;8.00;99.90;;;7.35;70.30;95830.28;5032839;28;19956;-63
2022/04/08 01:40:01;;;;;;;;;;;8.10;99.90;;;7.35;68.90;95831.13;5036449;28;20137;-61
2022/04/08 01:42:26;;;;;;;;;;;8.00;99.90;;;7.31;68.20;95836.63;5033610;28;20003;-62
2022/04/08 01:44:53;;;;;;;;;;;8.00;99.90;;;7.25;69.62;95833.38;5034054;28;19959;-64
2022/04/08 01:47:19;;;;;;;;;;;7.90;99.90;;;7.28;68.28;95839.38;5032626;28;19970;-60
2022/04/08 01:49:45;;;;;;;;;;;7.90;99.90;;;7.17;70.67;95835.50;5032207;28;19968;-61
2022/04/08 01:52:11;;;;;;;;;;;7.90;99.90;;;7.03;73.38;95838.81;5030648;28;19925;-61
2022/04/08 01:54:37;;;;;;;;;;;7.70;99.90;;;6.90;72.91;95829.81;5032302;28;19947;-61
2022/04/08 01:57:03;;;;;;;;;;;7.60;99.90;;;6.86;72.91;95834.34;5032747;28;19921;-65
2022/04/08 01:59:28;;;;;;;;;;;7.50;99.90;;;6.81;74.72;95825.00;5032747;28;19925;-61
2022/04/08 02:01:54;;;;;;;;;;;7.50;99.90;;;6.74;75.50;95836.69;5033433;28;19924;-62
2022/04/08 02:04:19;;;;;;;;;;;7.40;99.90;;;6.73;75.26;95851.56;5032654;28;19917;-64
2022/04/08 02:06:45;;;;;;;;;;;7.40;99.90;;;6.66;76.45;95847.53;5031172;28;19972;-60
2022/04/08 02:09:13;;;;;;;;;;;7.40;99.90;;;6.63;77.19;95840.66;5034154;28;20238;-62
2022/04/08 02:11:39;;;;;;;;;;;7.30;99.90;;;6.66;76.43;95845.75;5029653;28;20008;-64
2022/04/08 02:14:05;;;;;;;;;;;7.30;99.90;;;6.81;73.45;95849.44;5031440;28;19924;-62
2022/04/08 02:16:31;;;;;;;;;;;7.30;99.90;;;6.78;75.71;95848.72;5029296;28;19925;-62
2022/04/08 02:18:57;;;;;;;;;;;7.40;99.90;;;6.73;75.99;95846.34;5032129;28;19920;-63
2022/04/08 02:21:22;;;;;;;;;;;7.40;99.90;;;6.91;70.93;95844.63;5033130;28;19917;-61
2022/04/08 02:23:49;;;;;;;;;;;7.50;99.90;;;6.90;72.41;95837.66;5033717;28;19932;-60
2022/04/08 02:26:16;;;;;;;;;;;7.50;99.90;;;6.80;73.20;95845.13;5029864;28;19925;-61
2022/04/08 02:28:42;;;;;;;;;;;7.50;99.90;;;6.78;76.58;95846.09;5030845;28;19925;-61
2022/04/08 02:31:08;;;;;;;;;;;7.40;99.90;;;6.69;75.30;95847.38;5032478;28;20073;-63
2022/04/08 02:33:34;;;;;;;;;;;7.40;99.90;;;6.79;75.08;95851.28;5031923;28;19947;-59
2022/04/08 02:35:59;;;;;;;;;;;7.30;99.90;;;6.71;74.96;95845.53;5030490;28;19917;-62
2022/04/08 02:38:25;;;;;;;;;;;7.40;99.90;;;6.59;79.18;95838.28;5031326;28;19963;-60
2022/04/08 02:40:51;;;;;;;;;;;7.30;99.90;;;6.66;74.53;95865.88;5030774;28;19940;-64
2022/04/08 02:43:16;;;;;;;;;;;7.30;99.90;;;6.68;75.51;95871.91;5030722;28;19971;-61
2022/04/08 02:45:42;;;;;;;;;;;7.30;99.90;;;6.63;77.20;95872.09;5030994;28;20007;-63
2022/04/08 02:48:08;;;;;;;;;;;7.30;99.90;;;6.63;78.12;95869.47;5034183;28;20430;-63
2022/04/08 02:50:33;;;;;;;;;;;7.30;99.90;;;6.59;78.40;95873.16;5029098;28;19959;-61
2022/04/08 02:52:59;;;;;;;;;;;7.30;99.90;;;6.56;79.78;95881.16;5032061;28;19917;-64
2022/04/08 02:55:25;;;;;;;;;;;7.30;99.90;;;6.52;77.63;95884.84;5034029;28;20108;-64
2022/04/08 02:57:50;;;;;;;;;;;7.20;99.90;;;6.48;79.92;95891.13;5031464;28;19927;-62
2022/04/08 03:00:20;;;;;;;;;;;7.20;99.90;;;6.43;80.14;95893.94;5030873;28;19925;-61
2022/04/08 03:02:46;;;;;;;;;;;7.20;99.90;;;6.50;78.45;95902.38;5030036;28;20012;-63
2022/04/08 03:05:12;;;;;;;;;;;7.20;99.90;;;6.59;78.37;95891.50;5031278;28;19916;-61
2022/04/08 03:07:38;;;;;;;;;;;7.20;99.90;;;6.54;79.50;95888.22;5030154;28;19928;-61
2022/04/08 03:10:05;;;;;;;;;;;7.30;99.90;;;6.51;79.44;95885.75;5031429;28;20734;-63
2022/04/08 03:12:31;;;;;;;;;;;7.20;99.90;;;6.47;79.12;95894.66;5030454;28;19920;-61
2022/04/08 03:14:57;;;;;;;;;;;7.20;99.90;;;6.42;78.36;95891.41;5034193;28;20281;-61
2022/04/08 03:17:23;;;;;;;;;;;7.20;99.90;;;6.38;79.19;95893.28;5031165;28;19979;-61
2022/04/08 03:19:49;;;;;;;;;;;7.10;99.90;;;6.36;79.45;95903.00;5029052;28;19921;-61
2022/04/08 03:22:19;;;;;;;;;;;7.10;99.90;;;6.41;78.15;95901.03;5032976;28;19927;-61
2022/04/08 03:24:45;;;;;;;;;;;7.10;99.90;;;6.50;75.60;95899.78;5028082;28;20303;-62
2022/04/08 03:27:11;;;;;;;;;;;7.20;99.90;;;6.48;76.23;95904.22;5031106;28;19925;-62
2022/04/08 03:29:37;;;;;;;;;;;7.20;99.90;;;6.45;76.87;95907.81;5031259;28;19920;-61
2022/04/08 03:32:02;;;;;;;;;;;7.20;99.90;;;6.39;78.53;95902.00;5031437;28;20021;-61
2022/04/08 03:34:28;;;;;;;;;;;7.10;99.90;;;6.25;77.13;95885.13;5025106;28;20046;-62
2022/04/08 03:36:54;;;;;;;;;;;7.10;99.90;;;6.46;73.16;95903.41;5033689;28;20272;-62
2022/04/08 03:39:20;;;;;;;;;;;7.10;99.90;;;6.52;72.49;95903.16;5030319;28;19965;-61
2022/04/08 03:41:45;;;;;;;;;;;7.20;99.90;;;6.55;72.57;95918.75;5034701;28;20068;-60
2022/04/08 03:44:11;;;;;;;;;;;7.20;99.90;;;6.52;73.38;95924.13;5035935;28;20004;-60
2022/04/08 03:46:36;;;;;;;;;;;7.20;99.90;;;6.37;72.15;95896.84;5037177;28;19964;-61
2022/04/08 03:49:03;;;;;;;;;;;7.20;99.90;;;6.45;73.46;95923.53;5035317;28;19916;-60
2022/04/08 03:51:29;;;;;;;;;;;7.20;99.90;;;6.49;72.53;95900.69;5035106;28;19944;-63
2022/04/08 03:53:55;;;;;;;;;;;7.20;99.90;;;6.54;69.94;95896.09;5033794;28;20607;-60
2022/04/08 03:56:20;;;;;;;;;;;7.20;99.90;;;6.52;74.01;95887.44;5036041;28;19975;-62
2022/04/08 03:58:46;;;;;;;;;;;7.20;99.90;;;6.48;70.65;95897.22;5032933;28;20008;-61
2022/04/08 04:01:12;;;;;;;;;;;7.20;99.90;;;6.41;70.96;95910.66;5032298;28;19921;-63
2022/04/08 04:03:37;;;;;;;;;;;7.20;99.90;;;6.36;74.51;95913.47;5035636;28;20464;-60
2022/04/08 04:06:03;;;;;;;;;;;7.10;99.90;;;6.43;68.62;95933.22;5033265;28;20027;-61
2022/04/08 04:08:29;;;;;;;;;;;7.10;99.90;;;6.45;70.48;95930.53;5029733;28;19929;-61
2022/04/08 04:10:54;;;;;;;;;;;7.10;99.90;;;6.42;68.21;95928.06;5028800;28;19970;-62
2022/04/08 04:13:20;;;;;;;;;;;7.10;99.90;;;6.46;69.22;95927.88;5034841;28;19933;-62
2022/04/08 04:15:46;;;;;;;;;;;7.10;99.90;;;6.56;67.30;95916.97;5027121;28;19921;-61
2022/04/08 04:18:11;;;;;;;;;;;7.20;99.90;;;6.49;70.92;95900.69;5031239;28;19924;-61
2022/04/08 04:20:37;;;;;;;;;;;7.20;99.90;;;6.45;73.00;95909.59;5028308;28;19971;-60
2022/04/08 04:23:03;;;;;;;;;;;7.10;99.90;;;6.42;69.80;95923.66;5031948;28;19924;-59
2022/04/08 04:25:28;;;;;;;;;;;7.10;99.90;;;6.42;69.05;95925.44;5034287;28;20525;-59
2022/04/08 04:27:55;;;;;;;;;;;7.10;99.90;;;6.41;68.75;95931.59;5033807;28;19956;-60
2022/04/08 04:30:21;;;;;;;;;;;7.10;99.90;;;6.40;67.85;95919.41;5034017;28;20577;-63
2022/04/08 04:32:46;;;;;;;;;;;7.10;99.90;;;6.46;69.41;95906.03;5033283;28;19921;-60
2022/04/08 04:35:12;;;;;;;;;;;7.10;99.90;;;6.38;68.55;95919.47;5038180;28;19924;-62
2022/04/08 04:37:37;;;;;;;;;;;7.10;99.90;;;6.28;69.79;95916.44;5036353;28;19928;-63
2022/04/08 04:40:04;;;;;;;;;;;7.00;99.90;;;6.27;70.95;95906.84;5033878;28;19932;-62
2022/04/08 04:42:30;;;;;;;;;;;7.00;99.90;;;6.24;70.85;95909.59;5034715;28;19928;-63
2022/04/08 04:44:56;;;;;;;;;;;6.90;99.90;;;6.17;72.09;95908.16;5035550;28;20349;-63
2022/04/08 04:47:22;;;;;;;;;;;6.90;99.90;;;6.15;72.25;95920.47;5031643;28;20335;-62
2022/04/08 04:49:48;;;;;;;;;;;6.90;99.90;;;6.13;71.55;95919.69;5028897;28;19931;-62
2022/04/08 04:52:14;;;;;;;;;;;6.90;99.90;;;6.08;73.56;95921.66;5032426;28;19924;-62
2022/04/08 04:54:41;;;;;;;;;;;6.80;99.90;;;6.11;73.47;95929.38;5033100;28;20296;-61
2022/04/08 04:57:07;;;;;;;;;;;6.80;99.90;;;6.16;71.90;95927.44;5037419;28;19916;-61
2022/04/08 04:59:33;;;;;;;;;;;6.80;99.90;;;6.14;72.20;95929.25;5036238;28;19925;-61
2022/04/08 05:01:58;;;;;;;;;;;6.80;99.90;;;6.14;73.17;95928.38;5033384;28;19931;-60
2022/04/08 05:04:24;;;;;;;;;;;6.90;99.90;;;6.14;74.24;95929.25;5030092;28;19920;-61
2022/04/08 05:06:49;;;;;;;;;;;6.90;99.90;;;6.15;75.68;95927.50;5026286;28;20384;-61
2022/04/08 05:09:15;;;;;;;;;;;6.80;99.90;;;6.14;75.72;95924.03;5030532;28;19959;-61
2022/04/08 05:11:41;;;;;;;;;;;6.80;99.90;;;6.16;75.88;95935.28;5032835;28;19925;-61
2022/04/08 05:14:06;;;;;;;;;;;6.90;99.90;;;6.09;76.88;95911.13;5034203;28;19924;-61
2022/04/08 05:16:32;;;;;;;;;;;6.90;99.90;;;6.21;76.90;95928.09;5030626;28;19917;-61
2022/04/08 05:18:58;;;;;;;;;;;6.90;99.90;;;6.03;75.79;95889.59;5043032;22;19972;-57
2022/04/08 05:21:24;;;;;;;;;;;7.00;99.90;;;6.28;76.10;95934.75;5048940;28;19927;-57
2022/04/08 05:23:49;;;;;;;;;;;6.90;99.90;;;6.29;75.96;95932.97;5052499;28;20392;-57
2022/04/08 05:26:15;;;;;;;;;;;7.00;99.90;;;6.34;75.93;95938.88;5048063;28;19932;-57
2022/04/08 05:28:41;;;;;;;;;;;7.00;99.90;;;6.38;76.04;95931.72;5052852;28;20426;-57
2022/04/08 05:31:07;;;;;;;;;;;7.10;99.90;;;6.40;75.82;95946.44;5042522;28;19963;-57
2022/04/08 05:33:33;;;;;;;;;;;7.10;99.90;;;6.29;76.04;95925.13;5050806;28;20050;-57
2022/04/08 05:35:58;;;;;;;;;;;7.10;99.90;;;6.47;74.54;95949.66;5049667;28;19924;-58
2022/04/08 05:38:24;;;;;;;;;;;7.20;99.90;;;6.48;73.26;95951.38;5050534;28;19971;-57
2022/04/08 05:40:50;;;;;;;;;;;7.20;99.90;;;6.59;71.36;95950.91;5044911;28;20111;-58
2022/04/08 05:43:16;;;;;;;;;;;7.20;99.90;;;6.68;70.57;95958.34;5055763;28;19917;-58
2022/04/08 05:45:42;;;;;;;;;;;7.30;99.90;;;6.72;70.38;95953.81;5055117;28;19928;-58
2022/04/08 05:48:08;;;;;;;;;;;7.40;99.90;;;6.77;70.98;95951.84;5049248;28;19928;-58
2022/04/08 05:50:34;;;;;;;;;;;7.40;99.90;;;6.83;71.48;95962.03;5050457;28;20002;-59
2022/04/08 05:52:59;;;;;;;;;;;7.50;99.90;;;6.85;71.91;95963.66;5050315;28;21284;-58
2022/04/08 05:55:25;;;;;;;;;;;7.50;99.90;;;6.89;72.87;95953.88;5053889;28;20250;-58
2022/04/08 05:57:53;;;;;;;;;;;7.60;99.90;;;6.95;73.33;95963.25;5051409;28;19917;-58
2022/04/08 06:00:20;;;;;;;;;;;7.60;99.90;;;6.95;73.97;95947.53;5047479;28;19989;-58
2022/04/08 06:02:47;;;;;;;;;;;7.60;99.90;;;7.01;75.04;95953.31;5047791;28;19921;-58
2022/04/08 06:05:18;;;;;;;;;;;7.70;99.90;;;7.06;76.78;95955.75;5051181;28;20003;-58
2022/04/08 06:07:50;;;;;;;;;;;7.70;99.90;;;7.08;77.72;95948.66;5046985;28;20003;-58
2022/04/08 06:10:18;;;;;;;;;;;7.70;99.90;;;7.11;79.69;95945.06;5047581;28;19928;-58
2022/04/08 06:12:50;;;;;;;;;;;7.70;99.90;;;7.14;81.32;95947.53;5051694;28;20253;-58
2022/04/08 06:15:16;;;;;;;;;;;7.80;99.90;;;7.17;82.53;95942.16;5047512;28;19930;-58
2022/04/08 06:17:42;;;;;;;;;;;7.80;99.90;;;7.20;82.02;95934.16;5048738;28;19982;-58
2022/04/08 06:20:09;;;;;;;;;;;7.80;99.90;;;7.18;81.84;95939.47;5046032;28;20439;-58
2022/04/08 06:22:39;;;;;;;;;;;7.90;99.90;;;7.17;83.36;95940.38;5051892;28;19916;-58
2022/04/08 06:25:07;;;;;;;;;;;7.90;99.90;;;7.09;84.77;95916.28;5049823;28;20196;-58
2022/04/08 06:27:32;;;;;;;;;;;7.80;99.90;;;7.07;85.47;95920.78;5052859;28;19924;-58
2022/04/08 06:29:58;;;;;;;;;;;7.80;99.90;;;6.99;83.18;95923.72;5051145;28;19925;-58
2022/04/08 06:32:24;;;;;;;;;;;7.70;99.90;;;7.04;84.05;95921.75;5051272;28;19967;-58
2022/04/08 06:34:49;;;;;;;;;;;7.70;99.90;;;7.04;85.74;95911.25;5051052;28;20372;-58
2022/04/08 06:37:15;;;;;;;;;;;7.70;99.90;;;7.05;85.54;95915.59;5047579;28;20005;-58
2022/04/08 06:39:41;;;;;;;;;;;7.70;99.90;;;7.05;86.50;95909.47;5052201;28;20413;-58
2022/04/08 06:42:06;;;;;;;;;;;7.70;99.90;;;7.12;89.58;95910.88;5048568;28;20177;-58
2022/04/08 06:44:32;;;;;;;;;;;7.80;99.90;;;7.18;89.45;95907.16;5053186;28;20416;-59
2022/04/08 06:46:57;;;;;;;;;;;7.80;99.90;;;7.25;88.92;95919.06;5048996;28;19935;-58
2022/04/08 06:49:23;;;;;;;;;;;7.90;99.90;;;7.28;89.37;95918.03;5050957;28;19974;-58
2022/04/08 06:51:50;;;;;;;;;;;8.00;99.90;;;7.20;86.91;95910.53;5049419;28;20635;-59
2022/04/08 06:54:15;;;;;;;;;;;7.90;99.90;;;7.17;89.65;95915.94;5054832;28;19925;-59
2022/04/08 06:56:41;;;;;;;;;;;7.90;99.90;;;7.10;89.00;95907.50;5051566;28;20323;-58
2022/04/08 06:59:06;;;;;;;;;;;7.80;99.90;;;7.03;90.39;95904.34;5048046;28;19952;-58
2022/04/08 07:01:33;;;;;;;;;;;7.70;99.90;;;6.98;92.17;95913.31;5048394;28;20307;-58
2022/04/08 07:03:58;;;;;;;;;;;7.70;99.90;;;6.91;93.06;95904.91;5046741;28;19925;-59
2022/04/08 07:06:24;;;;;;;;;;;7.60;99.90;;;6.88;94.34;95911.13;5048626;28;20396;-58
2022/04/08 07:08:50;;;;;;;;;;;7.60;99.90;;;6.83;95.80;95904.38;5052983;28;20015;-58
2022/04/08 07:11:15;;;;;;;;;;;7.50;99.90;;;6.76;96.29;95900.34;5052006;28;19986;-59
2022/04/08 07:13:41;;;;;;;;;;;7.50;99.90;;;6.70;97.86;95888.38;5050452;28;20475;-58
2022/04/08 07:16:08;;;;;;;;;;;7.40;99.90;;;6.74;98.62;95900.41;5049124;28;20292;-59
2022/04/08 07:18:34;;;;;;;;;;;7.40;99.90;;;6.72;99.11;95898.81;5053901;28;20682;-59
2022/04/08 07:21:00;;;;;;;;;;;7.40;99.90;;;6.62;98.71;95873.03;5057517;28;20395;-58
2022/04/08 07:23:25;;;;;;;;;;;7.40;99.90;;;6.63;98.21;95889.59;5053628;28;19928;-58
2022/04/08 07:25:51;;;;;;;;;;;7.30;99.90;;;6.54;98.74;95875.13;5052041;28;19955;-59
2022/04/08 07:28:16;;;;;;;;;;;7.30;99.90;;;6.54;100.00;95880.38;5050834;28;20008;-59
2022/04/08 07:30:42;;;;;;;;;;;7.20;99.90;;;6.51;100.00;95875.25;5055237;28;20336;-59
2022/04/08 07:33:08;;;;;;;;;;;7.20;99.90;;;6.51;100.00;95875.25;5050691;28;20047;-59
2022/04/08 07:35:33;;;;;;;;;;;7.20;99.90;;;6.54;100.00;95869.91;5051639;28;19952;-59
2022/04/08 07:38:00;;;;;;;;;;;7.20;99.90;;;6.53;100.00;95872.56;5055773;28;20018;-60
2022/04/08 07:40:26;;;;;;;;;;;7.30;99.90;;;6.57;100.00;95863.66;5052302;28;20618;-60
2022/04/08 07:42:52;;;;;;;;;;;7.30;99.90;;;6.66;100.00;95869.34;5056882;28;19931;-59
2022/04/08 07:45:18;;;;;;;;;;;7.30;99.90;;;6.72;100.00;95867.38;5054887;28;19924;-59
2022/04/08 07:47:44;;;;;;;;;;;7.40;99.90;;;6.84;100.00;95867.63;5057462;28;19920;-59
2022/04/08 07:50:12;;;;;;;;;;;7.50;99.90;;;6.97;100.00;95859.22;5052340;28;20459;-59
2022/04/08 07:52:38;;;;;;;;;;;7.60;99.90;;;7.07;100.00;95858.69;5052099;28;19947;-60
2022/04/08 07:55:04;;;;;;;;;;;7.80;99.90;;;7.14;100.00;95847.91;5054218;28;19924;-59
2022/04/08 07:57:30;;;;;;;;;;;7.80;99.90;;;7.26;100.00;95858.66;5055448;28;19987;-59
2022/04/08 07:59:55;;;;;;;;;;;7.90;99.90;;;7.40;100.00;95855.34;5054920;28;19921;-59
2022/04/08 08:02:21;;;;;;;;;;;8.00;99.90;;;7.46;100.00;95856.81;5053785;28;19971;-59
2022/04/08 08:04:47;;;;;;;;;;;8.10;99.90;;;7.49;100.00;95848.81;5053274;28;19925;-59
2022/04/08 08:07:13;;;;;;;;;;;8.20;99.90;;;7.72;100.00;95849.47;5044594;28;20328;-59
2022/04/08 08:09:38;;;;;;;;;;;8.30;99.90;;;7.83;100.00;95826.97;5048600;28;19916;-59
2022/04/08 08:12:04;;;;;;;;;;;8.50;99.90;;;8.08;100.00;95827.50;5054410;28;20112;-59
2022/04/08 08:14:30;;;;;;;;;;;8.70;99.90;;;8.25;100.00;95811.69;5056384;28;19912;-59
2022/04/08 08:16:56;;;;;;;;;;;8.90;99.90;;;8.30;98.82;95812.28;5049555;28;19924;-59
2022/04/08 08:19:22;;;;;;;;;;;9.00;99.90;;;8.51;99.88;95817.38;5052766;28;20280;-59
2022/04/08 08:21:48;;;;;;;;;;;9.10;99.90;;;8.53;100.00;95811.09;5053970;28;19962;-58
2022/04/08 08:24:13;;;;;;;;;;;9.30;99.90;;;8.64;100.00;95812.28;5053550;28;19924;-59
2022/04/08 08:26:39;;;;;;;;;;;9.30;99.90;;;8.63;99.98;95800.06;5055642;28;20376;-58
2022/04/08 08:29:05;;;;;;;;;;;9.30;99.90;;;8.62;99.26;95798.41;5051829;28;19952;-58
2022/04/08 08:31:31;;;;;;;;;;;9.30;99.90;;;8.55;100.00;95790.84;5052840;28;20597;-59
2022/04/08 08:33:56;;;;;;;;;;;9.20;99.90;;;8.47;100.00;95773.78;5058231;28;19966;-47
2022/04/08 08:36:22;;;;;;;;;;;9.20;99.90;;;8.47;100.00;95795.69;5053539;28;20470;-63
2022/04/08 08:38:48;;;;;;;;;;;9.20;99.90;;;8.51;100.00;95783.22;5049794;28;19952;-61
2022/04/08 08:41:14;;;;;;;;;;;9.20;99.90;;;8.57;100.00;95790.75;5055482;28;19929;-62
2022/04/08 08:43:39;;;;;;;;;;;9.20;99.90;;;8.64;100.00;95786.03;5054232;28;19951;-60
2022/04/08 08:46:06;;;;;;;;;;;9.20;99.90;;;8.77;100.00;95777.38;5043855;28;20049;-59
2022/04/08 08:48:37;;;;;;;;;;;9.30;99.90;;;8.90;100.00;95782.78;5050196;28;20221;-59
2022/04/08 08:51:05;;;;;;;;;;;9.50;99.90;;;8.98;100.00;95767.41;5050352;28;20078;-59
2022/04/08 08:53:34;;;;;;;;;;;9.50;99.90;;;9.07;100.00;95765.22;5073711;28;19928;-59
2022/04/08 08:56:00;;;;;;;;;;;9.60;99.90;;;8.95;99.99;95765.00;5053548;28;19932;-66
2022/04/08 08:58:29;;;;;;;;;;;9.60;99.90;;;8.97;100.00;95767.50;5052620;28;19916;-66
2022/04/08 09:00:56;;;;;;;;;;;9.60;99.90;;;8.79;100.00;95758.88;5052443;28;20245;-66
2022/04/08 09:03:28;;;;;;;;;;;9.50;99.90;;;8.72;100.00;95747.00;5051885;28;20369;-65
2022/04/08 09:05:53;;;;;;;;;;;9.50;99.90;;;8.73;100.00;95740.81;5053009;28;19924;-66
2022/04/08 09:08:19;;;;;;;;;;;9.40;99.90;;;8.84;100.00;95748.09;5052878;28;19936;-66
2022/04/08 09:10:50;;;;;;;;;;;9.40;99.90;;;8.78;98.82;95744.88;5049916;28;19925;-65
2022/04/08 09:13:20;;;;;;;;;;;9.40;99.90;;;8.72;100.00;95747.00;5053879;28;20113;-66
2022/04/08 09:16:12;;;;;;;;;;;9.40;99.90;;;8.71;100.00;95740.06;5050611;28;20695;-66
2022/04/08 09:18:41;;;;;;;;;;;9.30;99.90;;;8.72;100.00;95728.59;5050478;28;19966;-67
2022/04/08 09:21:07;;;;;;;;;;;9.30;99.90;;;8.78;100.00;95715.13;5047905;28;19964;-66
2022/04/08 09:23:33;;;;;;;;;;;9.40;99.90;;;8.81;100.00;95706.22;5053605;28;20526;-66
2022/04/08 09:26:04;;;;;;;;;;;9.40;99.90;;;8.87;100.00;95698.84;5048285;28;19924;-66
2022/04/08 09:28:35;;;;;;;;;;;9.40;99.90;;;8.84;100.00;95691.13;5057164;28;19920;-66
2022/04/08 09:31:01;;;;;;;;;;;9.40;99.90;;;8.76;100.00;95681.06;5048751;28;20121;-66
2022/04/08 09:33:27;;;;;;;;;;;9.40;99.90;;;8.78;100.00;95681.81;5054442;28;21037;-66
2022/04/08 09:35:55;;;;;;;;;;;9.30;99.90;;;8.66;100.00;95679.03;5049359;28;19916;-66
2022/04/08 09:38:22;;;;;;;;;;;9.30;99.90;;;8.48;100.00;95673.88;5045530;28;20724;-66
2022/04/08 09:40:48;;;;;;;;;;;9.20;99.90;;;8.39;100.00;95669.13;5046620;28;19916;-66
2022/04/08 09:43:16;;;;;;;;;;;9.00;99.90;;;8.39;100.00;95662.06;5045824;28;19931;-66
2022/04/08 09:45:41;;;;;;;;;;;9.00;99.90;;;8.33;100.00;95659.81;5046111;28;20165;-66
2022/04/08 09:48:08;;;;;;;;;;;8.90;99.90;;;8.28;100.00;95653.97;5049858;28;19925;-66
2022/04/08 09:50:36;;;;;;;;;;;8.90;99.90;;;8.07;100.00;95645.47;5052048;28;19920;-67
2022/04/08 09:53:04;;;;;;;;;;;8.70;99.90;;;7.98;100.00;95643.38;5046476;28;20375;-66
2022/04/08 09:55:30;;;;;;;;;;;8.60;99.90;;;7.90;100.00;95641.16;5047912;28;20098;-66
2022/04/08 09:57:57;;;;;;;;;;;8.50;99.90;;;7.80;100.00;95621.59;5052311;28;19916;-67
2022/04/08 10:00:24;;;;;;;;;;;8.40;99.90;;;7.71;100.00;95616.84;5050486;28;19929;-49
2022/04/08 10:02:52;;;;;;;;;;;8.30;99.90;;;7.62;100.00;95615.56;5049075;28;20415;-57
2022/04/08 10:05:17;;;;;;;;;;;8.20;99.90;;;7.53;100.00;95611.66;5042863;28;19924;-57
2022/04/08 10:07:45;;;;;;;;;;;8.20;99.90;;;7.50;100.00;95595.22;5047936;28;19928;-58
2022/04/08 10:10:17;;;;;;;;;;;8.10;99.90;;;7.47;100.00;95582.31;5051234;28;19928;-57
2022/04/08 10:12:54;;;;;;;;;;;8.10;99.90;;;7.45;100.00;95579.75;5052459;28;20379;-57
2022/04/08 10:15:41;;;;;;;;;;;8.10;99.90;;;7.51;100.00;95583.81;5045307;28;19928;-57
2022/04/08 10:18:07;;;;;;;;;;;8.10;99.90;;;7.53;100.00;95566.22;5044620;28;19966;-57
2022/04/08 10:20:34;;;;;;;;;;;8.10;99.90;;;7.56;100.00;95564.28;5054372;28;19925;-58
2022/04/08 10:23:14;;;;;;;;;;;8.10;99.90;;;7.64;100.00;95553.34;5049265;28;19920;-57
2022/04/08 10:25:44;;;;;;;;;;;8.20;99.90;;;7.75;100.00;95551.00;5050556;28;20375;-57
2022/04/08 10:28:11;;;;;;;;;;;8.30;99.90;;;7.82;100.00;95547.13;5054600;28;19921;-57
2022/04/08 10:30:48;;;;;;;;;;;8.40;99.90;;;7.84;100.00;95541.75;5051210;28;19920;-58
2022/04/08 10:33:23;;;;;;;;;;;8.40;99.90;;;7.79;100.00;95534.16;5049361;28;19957;-57
2022/04/08 10:35:59;;;;;;;;;;;8.40;99.90;;;7.77;100.00;95538.66;5048312;28;20295;-57
2022/04/08 10:38:35;;;;;;;;;;;8.40;99.90;;;7.82;100.00;95533.13;5050510;28;19924;-57
2022/04/08 10:41:01;;;;;;;;;;;8.40;99.90;;;7.83;100.00;95526.97;5052262;28;20273;-57
2022/04/08 10:43:27;;;;;;;;;;;8.40;99.90;;;7.81;100.00;95507.84;5045788;28;19931;-57
2022/04/08 10:45:59;;;;;;;;;;;8.50;99.90;;;7.94;100.00;95506.19;5050454;28;20247;-57
2022/04/08 10:48:32;;;;;;;;;;;8.60;99.90;;;8.08;100.00;95509.84;5053094;28;19931;-57
2022/04/08 10:51:27;;;;;;;;;;;8.70;99.90;;;8.21;100.00;95502.94;5054558;28;19920;-57
2022/04/08 10:54:02;;;;;;;;;;;8.80;99.90;;;8.34;100.00;95496.03;5058681;28;19920;-57
2022/04/08 10:56:34;;;;;;;;;;;9.00;99.90;;;8.50;100.00;95490.75;5056580;28;19931;-57
2022/04/08 10:59:00;;;;;;;;;;;9.00;99.90;;;8.53;100.00;95476.59;5056459;28;19921;-57
2022/04/08 11:01:26;;;;;;;;;;;9.10;99.90;;;8.45;100.00;95479.66;5050418;28;19971;-57
2022/04/08 11:04:00;;;;;;;;;;;9.10;99.90;;;8.22;100.00;95473.13;5053551;28;20682;-57
2022/04/08 11:06:31;;;;;;;;;;;8.90;99.90;;;7.99;100.00;95425.41;5057691;28;19930;-58
2022/04/08 11:09:12;;;;;;;;;;;8.80;99.90;;;7.82;100.00;95467.53;5056387;28;19936;-57
2022/04/08 11:11:41;;;;;;;;;;;8.70;99.90;;;7.51;100.00;95466.63;5056029;28;19927;-58
2022/04/08 11:14:10;;;;;;;;;;;8.40;99.90;;;7.46;100.00;95431.94;5061097;28;20390;-58
2022/04/08 11:16:40;;;;;;;;;;;8.20;99.90;;;7.47;100.00;95404.81;5056871;28;20343;-58
2022/04/08 11:19:12;;;;;;;;;;;8.20;99.90;;;7.17;100.00;95471.09;5052224;28;19979;-57
2022/04/08 11:21:39;;;;;;;;;;;8.10;99.90;;;7.15;100.00;95427.56;5054879;22;20016;-50
2022/04/08 11:24:08;;;;;;;;;;;7.90;99.90;;;7.23;100.00;95428.84;5040540;28;19964;-50
2022/04/08 11:26:59;;;;;;;;;;;8.00;99.90;;;7.21;100.00;95424.59;5040508;28;19925;-47
2022/04/08 11:29:27;;;;;;;;;;;7.90;99.90;;;7.30;100.00;95394.41;5036378;28;19936;-46